createdAt,value
2016-04-22T14:22:01.741Z,25.24
2016-04-22T14:22:44.431Z,25.36
2016-04-22T14:23:27.602Z,25.36
2016-04-22T14:24:10.855Z,25.31
2016-04-22T14:24:53.968Z,25.24
2016-04-22T14:25:37.035Z,25.18
2016-04-22T14:26:19.975Z,25.11
2016-04-22T14:27:02.915Z,25.12
2016-04-22T14:27:45.871Z,25.04
2016-04-22T14:28:28.903Z,25.07
2016-04-22T14:29:12.062Z,25.04
2016-04-22T14:29:55.111Z,25.03
2016-04-22T14:30:38.158Z,24.96
2016-04-22T14:31:21.082Z,25.01
2016-04-22T14:32:04.116Z,24.96
2016-04-22T14:32:47.244Z,25.01
2016-04-22T14:33:30.384Z,24.78
2016-04-22T14:34:13.434Z,24.68
2016-04-22T14:34:56.483Z,24.68
2016-04-22T14:35:39.452Z,24.69
2016-04-22T14:36:22.362Z,24.65
2016-04-22T14:37:05.395Z,24.68
2016-04-22T14:37:48.445Z,24.63
2016-04-22T14:38:31.617Z,24.63
2016-04-22T14:39:14.808Z,24.69
2016-04-22T14:39:57.981Z,24.69
2016-04-22T14:40:41.109Z,24.82
2016-04-22T14:41:24.359Z,24.79
2016-04-22T14:42:07.486Z,24.79
2016-04-22T14:42:50.505Z,24.77
2016-04-22T14:43:32.786Z,24.79
2016-04-22T14:44:15.742Z,24.79
2016-04-22T14:44:58.855Z,24.75
2016-04-22T14:45:41.982Z,24.66
2016-04-22T14:46:25.154Z,24.68
2016-04-22T14:47:07.531Z,24.65
2016-04-22T14:47:50.721Z,24.74
2016-04-22T14:48:34.081Z,24.44
2016-04-22T14:49:16.568Z,24.36
2016-04-22T14:49:59.899Z,24.29
2016-04-22T14:50:43.074Z,24.4
2016-04-22T14:51:26.465Z,24.19
2016-04-22T14:52:09.921Z,24.18
2016-04-22T14:52:53.048Z,24.19
2016-04-22T14:53:36.016Z,24.14
2016-04-22T14:54:19.784Z,24.1
2016-04-22T14:55:02.928Z,24.07
2016-04-22T14:55:45.353Z,24.21
2016-04-22T14:56:28.774Z,24.13
2016-04-22T14:57:12.027Z,24.18
2016-04-22T14:57:55.140Z,24.07
2016-04-22T14:58:38.202Z,23.88
2016-04-22T14:59:21.549Z,23.81
2016-04-22T15:00:04.692Z,23.71
2016-04-22T15:00:48.053Z,23.73
2016-04-22T15:01:31.178Z,23.71
2016-04-22T15:02:14.244Z,23.66
2016-04-22T15:02:57.372Z,23.58
2016-04-22T15:03:40.668Z,23.69
2016-04-22T15:04:24.062Z,23.55
2016-04-22T15:05:07.533Z,23.62
2016-04-22T15:05:50.661Z,23.64
2016-04-22T15:06:34.176Z,23.59
2016-04-22T15:07:17.226Z,23.64
2016-04-22T15:08:00.431Z,23.52
2016-04-22T15:08:43.450Z,23.51
2016-04-22T15:09:26.716Z,23.47
2016-04-22T15:10:09.953Z,23.33
2016-04-22T15:10:53.236Z,23.32
2016-04-22T15:11:36.424Z,23.4
2016-04-22T15:12:19.692Z,23.45
2016-04-22T15:13:02.820Z,23.42
2016-04-22T15:13:46.183Z,23.48
2016-04-22T15:14:29.261Z,23.47
2016-04-22T15:15:12.544Z,23.52
2016-04-22T15:15:55.843Z,23.48
2016-04-22T15:16:38.984Z,23.28
2016-04-22T15:17:22.050Z,23.2
2016-04-22T15:18:05.287Z,23.13
2016-04-22T15:18:48.493Z,23.18
2016-04-22T15:19:31.508Z,23.25
2016-04-22T15:20:14.635Z,23.2
2016-04-22T15:20:57.795Z,23.2
2016-04-22T15:21:40.873Z,23.13
2016-04-22T15:22:23.907Z,23.1
2016-04-22T15:23:06.988Z,22.95
2016-04-22T15:23:50.084Z,22.98
2016-04-22T15:24:33.271Z,22.86
2016-04-22T15:25:16.196Z,22.77
2016-04-22T15:25:59.230Z,22.62
2016-04-22T15:26:42.324Z,22.59
2016-04-22T15:27:25.530Z,22.38
2016-04-22T15:28:08.329Z,22.08
2016-04-22T15:28:51.348Z,22.18
2016-04-22T15:29:34.488Z,22
2016-04-22T15:30:17.429Z,21.97
2016-04-22T15:31:00.307Z,21.91
2016-04-22T15:31:43.261Z,21.96
2016-04-22T15:32:26.339Z,21.78
2016-04-22T15:33:09.358Z,21.78
2016-04-22T15:33:52.423Z,21.84
2016-04-22T15:34:35.361Z,21.83
2016-04-22T15:35:18.364Z,21.83
2016-04-22T15:36:01.366Z,21.91
2016-04-22T15:36:44.275Z,21.97
2016-04-22T15:37:27.166Z,21.99
2016-04-22T15:38:09.919Z,22.06
2016-04-22T15:38:52.811Z,22.15
2016-04-22T15:39:35.874Z,22.19
2016-04-22T15:40:18.939Z,22.12
2016-04-22T15:41:01.474Z,22.14
2016-04-22T15:41:44.227Z,22.14
2016-04-22T15:42:27.211Z,22.19
2016-04-22T15:43:10.386Z,22.03
2016-04-22T15:43:53.278Z,21.84
2016-04-22T15:44:36.185Z,21.83
2016-04-22T15:45:19.250Z,21.78
2016-04-22T15:46:01.691Z,21.89
2016-04-22T15:46:44.741Z,21.84
2016-04-22T15:47:27.694Z,21.92
2016-04-22T15:48:10.507Z,21.91
2016-04-22T15:48:53.729Z,21.92
2016-04-22T15:49:36.666Z,21.84
2016-04-22T15:50:19.717Z,21.81
2016-04-22T15:51:02.834Z,21.88
2016-04-22T15:51:45.837Z,21.7
2016-04-22T15:52:28.805Z,21.7
2016-04-22T15:53:11.823Z,21.53
2016-04-22T15:53:55.123Z,21.41
2016-04-22T15:54:38.357Z,21.33
2016-04-22T15:55:21.298Z,21.28
2016-04-22T15:56:04.441Z,21.15
2016-04-22T15:56:47.553Z,21.04
2016-04-22T15:57:30.631Z,20.98
2016-04-22T15:58:13.696Z,20.9
2016-04-22T15:58:56.777Z,20.92
2016-04-22T15:59:39.793Z,21.05
2016-04-22T16:00:22.905Z,21.04
2016-04-22T16:01:05.876Z,20.93
2016-04-22T16:01:48.973Z,20.98
2016-04-22T16:02:33.910Z,20.96
2016-04-22T16:03:16.803Z,20.78
2016-04-22T16:04:01.212Z,20.86
2016-04-22T16:04:44.153Z,20.75
2016-04-22T16:05:27.106Z,20.93
2016-04-22T16:06:10.031Z,20.86
2016-04-22T16:06:52.923Z,20.92
2016-04-22T16:07:36.095Z,20.89
2016-04-22T16:08:19.395Z,21.01
2016-04-22T16:09:04.850Z,21.07
2016-04-22T16:09:50.822Z,21.15
2016-04-22T16:10:33.853Z,21.14
2016-04-22T16:11:16.981Z,21.13
2016-04-22T16:12:00.015Z,21.17
2016-04-22T16:12:43.061Z,21.15
2016-04-22T16:13:26.299Z,21
2016-04-22T16:14:10.364Z,20.92
2016-04-22T16:14:53.491Z,20.8
2016-04-22T16:15:36.616Z,20.77
2016-04-22T16:16:19.479Z,20.74
2016-04-22T16:17:02.560Z,20.7
2016-04-22T16:17:45.657Z,20.7
2016-04-22T16:18:30.782Z,20.7
2016-04-22T16:19:13.721Z,20.77
2016-04-22T16:19:56.771Z,20.74
2016-04-22T16:20:39.677Z,20.6
2016-04-22T16:21:22.696Z,20.63
2016-04-22T16:22:05.792Z,20.64
2016-04-22T16:22:48.904Z,20.73
2016-04-22T16:23:31.826Z,20.77
2016-04-22T16:24:14.969Z,20.75
2016-04-22T16:24:57.941Z,20.7
2016-04-22T16:25:41.019Z,20.75
2016-04-22T16:26:23.974Z,20.64
2016-04-22T16:27:07.056Z,20.6
2016-04-22T16:27:49.949Z,20.56
2016-04-22T16:28:33.121Z,20.52
2016-04-22T16:29:16.062Z,20.55
2016-04-22T16:29:58.970Z,20.48
2016-04-22T16:30:41.860Z,20.46
2016-04-22T16:31:24.817Z,20.48
2016-04-22T16:32:07.709Z,20.48
2016-04-22T16:32:50.634Z,20.33
2016-04-22T16:33:35.493Z,20.33
2016-04-22T16:34:18.418Z,20.34
2016-04-22T16:35:01.343Z,20.24
2016-04-22T16:35:44.218Z,20.29
2016-04-22T16:36:27.173Z,20.21
2016-04-22T16:37:10.098Z,20.24
2016-04-22T16:37:53.006Z,20.29
2016-04-22T16:38:37.975Z,20.33
2016-04-22T16:39:20.900Z,20.36
2016-04-22T16:40:03.793Z,20.34
2016-04-22T16:40:46.686Z,20.29
2016-04-22T16:41:29.577Z,20.21
2016-04-22T16:42:12.471Z,20.32
2016-04-22T16:42:55.395Z,20.3
2016-04-22T16:43:40.130Z,20.3
2016-04-22T16:44:23.054Z,20.32
2016-04-22T16:45:05.963Z,20.22
2016-04-22T16:45:48.888Z,20.22
2016-04-22T16:46:30.872Z,20.32
2016-04-22T16:47:13.765Z,20.33
2016-04-22T16:47:56.705Z,20.3
2016-04-22T16:48:39.908Z,20.14
2016-04-22T16:49:22.802Z,20.17
2016-04-22T16:50:06.118Z,20.12
2016-04-22T16:50:49.010Z,20.03
2016-04-22T16:51:31.963Z,20.04
2016-04-22T16:52:14.857Z,20.03
2016-04-22T16:52:57.796Z,19.93
2016-04-22T16:53:40.671Z,19.96
2016-04-22T16:54:23.582Z,19.94
2016-04-22T16:55:06.474Z,19.97
2016-04-22T16:55:49.384Z,20.04
2016-04-22T16:56:32.290Z,20.08
2016-04-22T16:57:15.198Z,20.02
2016-04-22T16:57:58.076Z,19.97
2016-04-22T16:58:40.998Z,19.87
2016-04-22T16:59:23.892Z,19.78
2016-04-22T17:00:06.785Z,19.75
2016-04-22T17:00:49.709Z,19.71
2016-04-22T17:01:32.647Z,19.49
2016-04-22T17:02:15.525Z,19.6
2016-04-22T17:02:58.449Z,19.59
2016-04-22T17:03:41.340Z,19.57
2016-04-22T17:04:24.248Z,19.53
2016-04-22T17:05:07.142Z,19.45
2016-04-22T17:05:50.051Z,19.35
2016-04-22T17:06:32.957Z,19.32
2016-04-22T17:07:15.882Z,19.26
2016-04-22T17:07:58.775Z,19.23
2016-04-22T17:08:41.666Z,19.29
2016-04-22T17:09:24.544Z,19.19
2016-04-22T17:10:07.422Z,19.23
2016-04-22T17:10:50.331Z,19.15
2016-04-22T17:11:33.237Z,19.17
2016-04-22T17:12:16.161Z,19.26
2016-04-22T17:12:59.038Z,19.34
2016-04-22T17:13:41.960Z,19.29
2016-04-22T17:14:24.839Z,19.39
2016-04-22T17:15:07.731Z,19.38
2016-04-22T17:15:50.656Z,19.41
2016-04-22T17:16:33.406Z,19.39
2016-04-22T17:17:16.300Z,19.42
2016-04-22T17:17:59.193Z,19.49
2016-04-22T17:18:42.302Z,19.41
2016-04-22T17:19:25.195Z,19.27
2016-04-22T17:20:08.119Z,19.27
2016-04-22T17:20:50.997Z,19.24
2016-04-22T17:21:33.888Z,19.15
2016-04-22T17:22:16.818Z,19.16
2016-04-22T17:22:59.726Z,19.22
2016-04-22T17:23:42.632Z,19.17
2016-04-22T17:24:25.526Z,19.08
2016-04-22T17:25:09.106Z,18.96
2016-04-22T17:25:51.751Z,18.71
2016-04-22T17:26:34.657Z,18.52
2016-04-22T17:27:17.566Z,18.34
2016-04-22T17:28:00.490Z,18.15
2016-04-22T17:28:43.428Z,18.23
2016-04-22T17:29:26.337Z,18.18
2016-04-22T17:30:09.229Z,18.11
2016-04-22T17:30:52.170Z,18.21
2016-04-22T17:31:34.998Z,18.16
2016-04-22T17:32:17.907Z,18.19
2016-04-22T17:33:00.817Z,18.19
2016-04-22T17:33:43.707Z,18.23
2016-04-22T17:34:26.584Z,18.16
2016-04-22T17:35:09.493Z,18.06
2016-04-22T17:35:52.402Z,18.12
2016-04-22T17:36:35.308Z,18.11
2016-04-22T17:37:18.202Z,18.12
2016-04-22T17:38:01.111Z,18.06
2016-04-22T17:38:43.986Z,18.08
2016-04-22T17:39:26.911Z,18.12
2016-04-22T17:40:09.804Z,18.09
2016-04-22T17:40:52.713Z,18.13
2016-04-22T17:41:35.588Z,18.06
2016-04-22T17:42:18.497Z,18.11
2016-04-22T17:43:01.389Z,18.03
2016-04-22T17:43:44.296Z,17.91
2016-04-22T17:44:27.189Z,17.88
2016-04-22T17:45:10.099Z,17.87
2016-04-22T17:45:52.991Z,17.8
2016-04-22T17:46:35.726Z,17.8
2016-04-22T17:47:18.635Z,17.82
2016-04-22T17:48:01.528Z,17.8
2016-04-22T17:48:44.435Z,17.78
2016-04-22T17:49:27.312Z,17.72
2016-04-22T17:50:10.252Z,17.72
2016-04-22T17:50:52.380Z,17.68
2016-04-22T17:51:35.286Z,17.65
2016-04-22T17:52:18.179Z,17.44
2016-04-22T17:53:01.089Z,17.38
2016-04-22T17:53:43.980Z,17.39
2016-04-22T17:54:26.872Z,17.34
2016-04-22T17:55:09.781Z,17.32
2016-04-22T17:55:52.674Z,17.31
2016-04-22T17:56:35.565Z,17.24
2016-04-22T17:57:18.474Z,17.1
2016-04-22T17:58:01.352Z,17.07
2016-04-22T17:58:44.259Z,16.91
2016-04-22T17:59:27.182Z,16.97
2016-04-22T18:00:10.107Z,16.86
2016-04-22T18:00:52.984Z,16.8
2016-04-22T18:01:35.906Z,16.73
2016-04-22T18:02:18.848Z,16.77
2016-04-22T18:03:01.740Z,16.73
2016-04-22T18:03:44.709Z,16.66
2016-04-22T18:04:27.603Z,16.66
2016-04-22T18:05:10.527Z,16.54
2016-04-22T18:05:53.421Z,16.49
2016-04-22T18:06:36.327Z,16.41
2016-04-22T18:07:19.219Z,16.5
2016-04-22T18:08:02.129Z,16.47
2016-04-22T18:08:45.036Z,16.46
2016-04-22T18:09:27.929Z,16.54
2016-04-22T18:10:10.822Z,16.54
2016-04-22T18:10:53.730Z,16.57
2016-04-22T18:11:36.621Z,16.55
2016-04-22T18:12:19.530Z,16.43
2016-04-22T18:13:02.424Z,16.43
2016-04-22T18:13:46.377Z,16.36
2016-04-22T18:14:29.269Z,16.31
2016-04-22T18:15:12.038Z,16.28
2016-04-22T18:15:54.916Z,16.26
2016-04-22T18:16:37.807Z,16.31
2016-04-22T18:17:20.700Z,16.1
2016-04-22T18:18:03.687Z,16.17
2016-04-22T18:18:46.593Z,16.16
2016-04-22T18:19:29.471Z,16.13
2016-04-22T18:20:12.364Z,16.16
2016-04-22T18:20:55.273Z,16.08
2016-04-22T18:21:38.226Z,16.1
2016-04-22T18:22:20.932Z,16.13
2016-04-22T18:23:03.857Z,16.18
2016-04-22T18:23:46.747Z,16.1
2016-04-22T18:24:29.641Z,16.03
2016-04-22T18:25:12.534Z,16.06
2016-04-22T18:25:55.443Z,15.94
2016-04-22T18:26:37.521Z,15.75
2016-04-22T18:27:20.446Z,15.76
2016-04-22T18:28:03.354Z,15.75
2016-04-22T18:28:46.229Z,15.66
2016-04-22T18:29:28.342Z,15.69
2016-04-22T18:30:11.548Z,15.7
2016-04-22T18:30:54.426Z,15.65
2016-04-22T18:31:37.316Z,15.66
2016-04-22T18:32:20.193Z,15.67
2016-04-22T18:33:03.087Z,15.63
2016-04-22T18:33:45.978Z,15.63
2016-04-22T18:34:28.886Z,15.54
2016-04-22T18:35:11.779Z,15.59
2016-04-22T18:35:54.673Z,15.59
2016-04-22T18:36:37.548Z,15.57
2016-04-22T18:37:20.456Z,15.47
2016-04-22T18:38:03.334Z,15.44
2016-04-22T18:38:46.241Z,15.43
2016-04-22T18:39:29.150Z,15.45
2016-04-22T18:40:12.058Z,15.44
2016-04-22T18:40:54.936Z,15.51
2016-04-22T18:41:37.811Z,15.47
2016-04-22T18:42:20.720Z,15.43
2016-04-22T18:43:03.630Z,15.39
2016-04-22T18:43:46.536Z,15.33
2016-04-22T18:44:29.272Z,15.27
2016-04-22T18:45:12.181Z,15.26
2016-04-22T18:45:55.058Z,15.23
2016-04-22T18:46:37.965Z,15.22
2016-04-22T18:47:20.061Z,15.22
2016-04-22T18:48:02.955Z,15.18
2016-04-22T18:48:45.877Z,15.15
2016-04-22T18:49:28.770Z,15.17
2016-04-22T18:50:11.695Z,15.18
2016-04-22T18:50:54.589Z,15.23
2016-04-22T18:51:37.495Z,15.15
2016-04-22T18:52:20.388Z,15.18
2016-04-22T18:53:03.281Z,15.14
2016-04-22T18:53:46.187Z,15.07
2016-04-22T18:54:29.097Z,15.18
2016-04-22T18:55:12.005Z,15.12
2016-04-22T18:55:54.898Z,15.02
2016-04-22T18:56:37.804Z,15
2016-04-22T18:57:20.713Z,14.97
2016-04-22T18:58:03.638Z,14.87
2016-04-22T18:58:47.810Z,14.9
2016-04-22T18:59:30.719Z,14.89
2016-04-22T19:00:13.628Z,14.89
2016-04-22T19:00:56.537Z,14.93
2016-04-22T19:01:39.401Z,14.9
2016-04-22T19:02:22.295Z,14.86
2016-04-22T19:03:05.173Z,14.89
2016-04-22T19:03:48.079Z,14.89
2016-04-22T19:04:30.987Z,14.9
2016-04-22T19:05:13.897Z,14.85
2016-04-22T19:05:56.774Z,14.79
2016-04-22T19:06:39.680Z,14.73
2016-04-22T19:07:22.573Z,14.61
2016-04-22T19:08:05.451Z,14.7
2016-04-22T19:08:48.342Z,14.7
2016-04-22T19:09:31.251Z,14.67
2016-04-22T19:10:14.128Z,14.71
2016-04-22T19:10:57.038Z,14.68
2016-04-22T19:11:39.928Z,14.68
2016-04-22T19:12:22.822Z,14.68
2016-04-22T19:13:05.714Z,14.66
2016-04-22T19:13:48.605Z,14.71
2016-04-22T19:14:31.499Z,14.77
2016-04-22T19:15:14.408Z,14.7
2016-04-22T19:15:57.316Z,14.71
2016-04-22T19:16:40.191Z,14.67
2016-04-22T19:17:23.100Z,14.73
2016-04-22T19:18:05.994Z,14.66
2016-04-22T19:18:48.885Z,14.66
2016-04-22T19:19:31.793Z,14.61
2016-04-22T19:20:14.702Z,14.55
2016-04-22T19:20:57.580Z,14.56
2016-04-22T19:21:40.502Z,14.53
2016-04-22T19:22:23.410Z,14.51
2016-04-22T19:23:06.320Z,14.36
2016-04-22T19:23:49.210Z,14.4
2016-04-22T19:24:32.104Z,14.34
2016-04-22T19:25:14.996Z,14.25
2016-04-22T19:25:57.874Z,14.31
2016-04-22T19:26:40.781Z,14.3
2016-04-22T19:27:23.674Z,14.31
2016-04-22T19:28:06.567Z,14.36
2016-04-22T19:28:49.458Z,14.33
2016-04-22T19:29:32.383Z,14.41
2016-04-22T19:30:15.292Z,14.45
2016-04-22T19:30:58.200Z,14.37
2016-04-22T19:31:41.091Z,14.37
2016-04-22T19:32:23.813Z,14.37
2016-04-22T19:33:06.768Z,14.25
2016-04-22T19:33:49.628Z,14.18
2016-04-22T19:34:32.537Z,14.15
2016-04-22T19:35:15.445Z,14.07
2016-04-22T19:35:58.355Z,14.05
2016-04-22T19:36:41.245Z,14.13
2016-04-22T19:37:24.139Z,14.03
2016-04-22T19:38:07.017Z,14.08
2016-04-22T19:38:49.907Z,14.04
2016-04-22T19:39:32.800Z,14.07
2016-04-22T19:40:15.694Z,14.11
2016-04-22T19:40:58.619Z,14.12
2016-04-22T19:41:41.509Z,14.01
2016-04-22T19:42:24.387Z,14.03
2016-04-22T19:43:07.139Z,14.03
2016-04-22T19:43:50.014Z,13.94
2016-04-22T19:44:32.908Z,14
2016-04-22T19:45:15.800Z,13.95
2016-04-22T19:45:58.725Z,13.91
2016-04-22T19:46:41.632Z,13.82
2016-04-22T19:47:24.572Z,13.7
2016-04-22T19:48:07.480Z,13.67
2016-04-22T19:48:50.371Z,13.73
2016-04-22T19:49:33.358Z,13.6
2016-04-22T19:50:16.299Z,13.57
2016-04-22T19:50:59.317Z,13.5
2016-04-22T19:51:42.208Z,13.45
2016-04-22T19:52:25.133Z,13.52
2016-04-22T19:53:08.009Z,13.5
2016-04-22T19:53:50.915Z,13.52
2016-04-22T19:54:33.793Z,13.5
2016-04-22T19:55:16.687Z,13.55
2016-04-22T19:55:59.893Z,13.46
2016-04-22T19:56:42.862Z,13.39
2016-04-22T19:57:24.958Z,13.4
2016-04-22T19:58:07.868Z,13.4
2016-04-22T19:58:50.743Z,13.42
2016-04-22T19:59:33.620Z,13.52
2016-04-22T20:00:16.512Z,13.46
2016-04-22T20:01:02.531Z,13.52
2016-04-22T20:01:45.500Z,13.49
2016-04-22T20:02:28.409Z,13.47
2016-04-22T20:03:11.303Z,13.46
2016-04-22T20:03:54.195Z,13.4
2016-04-22T20:04:37.086Z,13.54
2016-04-22T20:05:20.011Z,13.52
2016-04-22T20:06:02.888Z,13.54
2016-04-22T20:06:45.794Z,13.54
2016-04-22T20:07:28.813Z,13.45
2016-04-22T20:08:11.769Z,13.31
2016-04-22T20:08:54.647Z,13.4
2016-04-22T20:09:37.569Z,13.33
2016-04-22T20:10:20.508Z,13.36
2016-04-22T20:11:03.464Z,13.37
2016-04-22T20:11:46.386Z,13.4
2016-04-22T20:12:29.280Z,13.33
2016-04-22T20:13:12.204Z,13.36
2016-04-22T20:13:57.691Z,13.28
2016-04-22T20:14:40.582Z,13.19
2016-04-22T20:15:23.460Z,13.19
2016-04-22T20:16:06.369Z,13.19
2016-04-22T20:16:49.228Z,13.2
2016-04-22T20:17:32.136Z,13.12
2016-04-22T20:18:15.030Z,13.12
2016-04-22T20:19:00.986Z,13.17
2016-04-22T20:19:43.892Z,13.16
2016-04-22T20:20:26.786Z,12.99
2016-04-22T20:21:09.788Z,13.01
2016-04-22T20:21:52.788Z,12.91
2016-04-22T20:22:35.744Z,13.02
2016-04-22T20:23:21.496Z,12.93
2016-04-22T20:24:04.093Z,12.93
2016-04-22T20:24:46.999Z,12.98
2016-04-22T20:25:29.877Z,13.01
2016-04-22T20:26:12.786Z,12.93
2016-04-22T20:26:55.663Z,12.93
2016-04-22T20:27:38.570Z,12.98
2016-04-22T20:28:21.463Z,13.01
2016-04-22T20:29:04.341Z,12.98
2016-04-22T20:29:47.279Z,12.99
2016-04-22T20:30:30.156Z,12.95
2016-04-22T20:31:13.049Z,12.87
2016-04-22T20:31:55.943Z,12.87
2016-04-22T20:32:38.849Z,12.87
2016-04-22T20:33:21.726Z,12.9
2016-04-22T20:34:07.573Z,12.87
2016-04-22T20:34:50.542Z,12.9
2016-04-22T20:35:33.498Z,12.9
2016-04-22T20:36:16.422Z,12.95
2016-04-22T20:36:59.315Z,12.9
2016-04-22T20:37:42.269Z,12.91
2016-04-22T20:38:26.553Z,12.9
2016-04-22T20:39:09.352Z,12.9
2016-04-22T20:39:52.258Z,12.84
2016-04-22T20:40:35.152Z,12.88
2016-04-22T20:41:18.061Z,12.83
2016-04-22T20:42:00.954Z,12.76
2016-04-22T20:42:43.845Z,12.68
2016-04-22T20:43:26.769Z,12.66
2016-04-22T20:44:09.663Z,12.66
2016-04-22T20:44:52.553Z,12.62
2016-04-22T20:45:35.462Z,12.7
2016-04-22T20:46:18.356Z,12.66
2016-04-22T20:47:01.264Z,12.7
2016-04-22T20:47:44.155Z,12.73
2016-04-22T20:48:27.049Z,12.7
2016-04-22T20:49:09.957Z,12.7
2016-04-22T20:49:52.832Z,12.75
2016-04-22T20:50:35.835Z,12.69
2016-04-22T20:51:19.135Z,12.65
2016-04-22T20:52:02.027Z,12.69
2016-04-22T20:52:45.090Z,12.66
2016-04-22T20:53:27.984Z,12.54
2016-04-22T20:54:10.908Z,12.53
2016-04-22T20:54:53.799Z,12.58
2016-04-22T20:55:36.771Z,12.5
2016-04-22T20:56:19.695Z,12.51
2016-04-22T20:57:02.588Z,12.54
2016-04-22T20:57:45.494Z,12.5
2016-04-22T20:58:28.435Z,12.53
2016-04-22T20:59:11.359Z,12.37
2016-04-22T20:59:54.362Z,12.28
2016-04-22T21:00:37.252Z,12.39
2016-04-22T21:01:20.146Z,12.26
2016-04-22T21:02:03.039Z,12.4
2016-04-22T21:02:45.961Z,12.28
2016-04-22T21:03:28.870Z,12.25
2016-04-22T21:04:11.763Z,12.35
2016-04-22T21:04:53.873Z,12.25
2016-04-22T21:05:36.734Z,12.29
2016-04-22T21:06:19.909Z,12.21
2016-04-22T21:07:02.787Z,12.25
2016-04-22T21:07:45.678Z,12.29
2016-04-22T21:08:28.571Z,12.21
2016-04-22T21:09:11.465Z,12.25
2016-04-22T21:09:54.342Z,12.23
2016-04-22T21:10:37.233Z,12.21
2016-04-22T21:11:20.125Z,12.21
2016-04-22T21:12:03.019Z,12.14
2016-04-22T21:12:45.925Z,12.29
2016-04-22T21:13:28.803Z,12.26
2016-04-22T21:14:11.696Z,12.2
2016-04-22T21:14:54.606Z,12.28
2016-04-22T21:15:37.481Z,12.12
2016-04-22T21:16:20.405Z,12.23
2016-04-22T21:17:02.486Z,12.14
2016-04-22T21:17:45.392Z,12.23
2016-04-22T21:18:28.269Z,12.32
2016-04-22T21:19:11.179Z,12.23
2016-04-22T21:19:54.086Z,12.14
2016-04-22T21:20:36.994Z,12.21
2016-04-22T21:21:19.872Z,12.15
2016-04-22T21:22:02.765Z,12.15
2016-04-22T21:22:45.655Z,12.21
2016-04-22T21:23:28.580Z,12.2
2016-04-22T21:24:11.473Z,12.18
2016-04-22T21:24:54.410Z,12.23
2016-04-22T21:25:37.320Z,12.28
2016-04-22T21:26:20.213Z,12.21
2016-04-22T21:27:03.107Z,12.23
2016-04-22T21:27:45.232Z,12.18
2016-04-22T21:28:28.156Z,12.14
2016-04-22T21:29:11.034Z,12.28
2016-04-22T21:29:53.940Z,12.29
2016-04-22T21:30:36.849Z,12.23
2016-04-22T21:31:19.742Z,12.3
2016-04-22T21:32:02.635Z,12.37
2016-04-22T21:32:45.526Z,12.26
2016-04-22T21:33:28.404Z,12.26
2016-04-22T21:34:11.297Z,12.23
2016-04-22T21:34:54.203Z,12.11
2016-04-22T21:35:37.117Z,12.03
2016-04-22T21:36:20.066Z,12.15
2016-04-22T21:37:02.875Z,12.18
2016-04-22T21:37:45.779Z,12.15
2016-04-22T21:38:28.537Z,12.15
2016-04-22T21:39:12.482Z,12.11
2016-04-22T21:39:55.883Z,12.18
2016-04-22T21:40:38.758Z,12.08
2016-04-22T21:41:21.656Z,12.11
2016-04-22T21:42:04.533Z,12.15
2016-04-22T21:42:47.440Z,12.1
2016-04-22T21:43:30.349Z,12.02
2016-04-22T21:44:13.226Z,12.08
2016-04-22T21:44:56.135Z,11.99
2016-04-22T21:45:39.010Z,11.95
2016-04-22T21:46:21.918Z,12
2016-04-22T21:47:04.844Z,12
2016-04-22T21:47:47.469Z,11.85
2016-04-22T21:48:30.356Z,11.83
2016-04-22T21:49:13.234Z,11.89
2016-04-22T21:49:56.142Z,11.95
2016-04-22T21:50:39.064Z,11.85
2016-04-22T21:51:21.942Z,11.86
2016-04-22T21:52:04.680Z,11.85
2016-04-22T21:52:47.555Z,11.77
2016-04-22T21:53:30.464Z,11.81
2016-04-22T21:54:13.372Z,11.76
2016-04-22T21:54:56.281Z,11.71
2016-04-22T21:55:39.203Z,11.77
2016-04-22T21:56:22.112Z,11.83
2016-04-22T21:57:05.005Z,11.78
2016-04-22T21:57:47.911Z,11.8
2016-04-22T21:58:30.805Z,11.88
2016-04-22T21:59:13.699Z,11.83
2016-04-22T21:59:56.591Z,11.93
2016-04-22T22:00:39.482Z,11.88
2016-04-22T22:01:22.391Z,11.85
2016-04-22T22:02:05.300Z,11.95
2016-04-22T22:02:48.191Z,11.93
2016-04-22T22:03:31.068Z,12.07
2016-04-22T22:04:13.993Z,11.97
2016-04-22T22:04:56.871Z,11.83
2016-04-22T22:05:39.746Z,11.77
2016-04-22T22:06:22.639Z,11.83
2016-04-22T22:07:05.549Z,11.71
2016-04-22T22:07:48.455Z,11.74
2016-04-22T22:08:31.348Z,11.62
2016-04-22T22:09:14.240Z,11.52
2016-04-22T22:09:57.149Z,11.52
2016-04-22T22:10:40.024Z,11.53
2016-04-22T22:11:22.934Z,11.52
2016-04-22T22:12:05.812Z,11.58
2016-04-22T22:12:48.734Z,11.45
2016-04-22T22:13:31.611Z,11.49
2016-04-22T22:14:14.520Z,11.38
2016-04-22T22:14:57.412Z,11.3
2016-04-22T22:15:40.303Z,11.22
2016-04-22T22:16:23.198Z,11.33
2016-04-22T22:17:05.951Z,11.33
2016-04-22T22:17:48.826Z,11.33
2016-04-22T22:18:31.734Z,11.2
2016-04-22T22:19:14.658Z,11.31
2016-04-22T22:19:57.567Z,11.3
2016-04-22T22:20:40.442Z,11.34
2016-04-22T22:21:23.163Z,11.49
2016-04-22T22:22:06.057Z,11.44
2016-04-22T22:22:48.948Z,11.45
2016-04-22T22:23:31.844Z,11.34
2016-04-22T22:24:14.753Z,11.38
2016-04-22T22:24:57.646Z,11.35
2016-04-22T22:25:40.521Z,11.35
2016-04-22T22:26:23.446Z,11.45
2016-04-22T22:27:06.339Z,11.49
2016-04-22T22:27:49.230Z,11.48
2016-04-22T22:28:32.139Z,11.48
2016-04-22T22:29:15.032Z,11.48
2016-04-22T22:29:57.925Z,11.44
2016-04-22T22:30:40.831Z,11.37
2016-04-22T22:31:23.755Z,11.33
2016-04-22T22:32:06.634Z,11.33
2016-04-22T22:32:49.525Z,11.31
2016-04-22T22:33:32.433Z,11.26
2016-04-22T22:34:15.326Z,11.25
2016-04-22T22:34:58.276Z,11.25
2016-04-22T22:35:41.151Z,11.27
2016-04-22T22:36:23.301Z,11.4
2016-04-22T22:37:06.217Z,11.26
2016-04-22T22:37:49.139Z,11.26
2016-04-22T22:38:31.899Z,11.33
2016-04-22T22:39:14.846Z,11.33
2016-04-22T22:39:57.746Z,11.31
2016-04-22T22:40:40.637Z,11.38
2016-04-22T22:41:23.560Z,11.3
2016-04-22T22:42:06.452Z,11.37
2016-04-22T22:42:49.327Z,11.33
2016-04-22T22:43:32.249Z,11.31
2016-04-22T22:44:15.171Z,11.23
2016-04-22T22:44:58.058Z,11.3
2016-04-22T22:45:40.949Z,11.22
2016-04-22T22:46:23.831Z,11.22
2016-04-22T22:47:06.730Z,11.12
2016-04-22T22:47:49.620Z,11.1
2016-04-22T22:48:32.503Z,11.1
2016-04-22T22:49:15.385Z,11.13
2016-04-22T22:49:58.282Z,11.18
2016-04-22T22:50:41.188Z,11.25
2016-04-22T22:51:24.084Z,11.31
2016-04-22T22:52:06.978Z,11.25
2016-04-22T22:52:49.853Z,11.2
2016-04-22T22:53:32.733Z,11.12
2016-04-22T22:54:15.644Z,11.1
2016-04-22T22:54:58.539Z,11.1
2016-04-22T22:55:41.430Z,11.1
2016-04-22T22:56:24.322Z,11.12
2016-04-22T22:57:07.248Z,11.16
2016-04-22T22:57:50.155Z,11.13
2016-04-22T22:58:33.063Z,10.98
2016-04-22T22:59:15.956Z,11.04
2016-04-22T22:59:58.850Z,10.92
2016-04-22T23:00:41.741Z,10.86
2016-04-22T23:01:24.620Z,10.79
2016-04-22T23:02:07.419Z,10.71
2016-04-22T23:02:50.309Z,10.77
2016-04-22T23:03:33.188Z,10.77
2016-04-22T23:04:15.285Z,10.77
2016-04-22T23:04:58.178Z,10.76
2016-04-22T23:05:41.099Z,10.69
2016-04-22T23:06:23.993Z,10.79
2016-04-22T23:07:06.855Z,10.62
2016-04-22T23:07:49.762Z,10.59
2016-04-22T23:08:32.671Z,10.64
2016-04-22T23:09:15.564Z,10.68
2016-04-22T23:09:58.442Z,10.68
2016-04-22T23:10:41.348Z,10.64
2016-04-22T23:11:24.240Z,10.62
2016-04-22T23:12:07.135Z,10.62
2016-04-22T23:12:50.026Z,10.59
2016-04-22T23:13:32.934Z,10.61
2016-04-22T23:14:15.843Z,10.62
2016-04-22T23:14:58.783Z,10.59
2016-04-22T23:15:41.658Z,10.65
2016-04-22T23:16:24.551Z,10.53
2016-04-22T23:17:07.476Z,10.43
2016-04-22T23:17:50.367Z,10.38
2016-04-22T23:18:33.259Z,10.3
2016-04-22T23:19:16.153Z,10.39
2016-04-22T23:19:59.047Z,10.31
2016-04-22T23:20:41.922Z,10.23
2016-04-22T23:21:24.831Z,10.21
2016-04-22T23:22:07.709Z,10.17
2016-04-22T23:22:50.600Z,10.18
2016-04-22T23:23:33.508Z,10.21
2016-04-22T23:24:16.369Z,10.23
2016-04-22T23:24:59.295Z,10.34
2016-04-22T23:25:42.186Z,10.28
2016-04-22T23:26:24.939Z,10.27
2016-04-22T23:27:07.800Z,10.34
2016-04-22T23:27:50.691Z,10.24
2016-04-22T23:28:33.583Z,10.27
2016-04-22T23:29:16.477Z,10.23
2016-04-22T23:29:59.386Z,10.15
2016-04-22T23:30:42.261Z,10.18
2016-04-22T23:31:25.155Z,10.21
2016-04-22T23:32:07.907Z,10.25
2016-04-22T23:32:50.032Z,10.21
2016-04-22T23:33:32.925Z,10.23
2016-04-22T23:34:15.849Z,10.28
2016-04-22T23:34:58.728Z,10.24
2016-04-22T23:35:41.635Z,10.21
2016-04-22T23:36:24.527Z,10.23
2016-04-22T23:37:07.404Z,10.23